createdAt,value
2022-12-23T00:00:37.147Z,86.82
2022-12-23T00:03:05.803Z,86.84
2022-12-23T00:05:37.702Z,86.89
2022-12-23T00:08:05.949Z,87.33
2022-12-23T00:10:33.672Z,87.11
2022-12-23T00:13:19.058Z,87.15
2022-12-23T00:15:46.763Z,86.75
2022-12-23T00:18:14.431Z,86.24
2022-12-23T00:20:42.248Z,86.20
2022-12-23T00:23:10.442Z,86.50
2022-12-23T00:25:45.621Z,86.82
2022-12-23T00:28:13.454Z,86.95
2022-12-23T00:30:41.221Z,86.52
2022-12-23T00:33:08.963Z,86.39
2022-12-23T00:35:36.627Z,86.43
2022-12-23T00:38:04.310Z,86.58
2022-12-23T00:40:49.237Z,86.59
2022-12-23T00:43:18.249Z,86.14
2022-12-23T00:45:45.960Z,86.74
2022-12-23T00:48:31.567Z,86.46
2022-12-23T00:50:59.201Z,86.35
2022-12-23T00:53:27.059Z,86.89
2022-12-23T00:55:54.720Z,86.64
2022-12-23T00:58:22.347Z,86.60
2022-12-23T01:01:07.584Z,86.45
2022-12-23T01:03:53.090Z,86.73
2022-12-23T01:06:20.955Z,86.41
2022-12-23T01:08:48.573Z,86.70
2022-12-23T01:11:17.095Z,86.76
2022-12-23T01:13:45.313Z,86.42
2022-12-23T01:16:17.364Z,86.42
2022-12-23T01:18:45.642Z,86.21
2022-12-23T01:21:13.318Z,86.54
2022-12-23T01:23:41.626Z,86.79
2022-12-23T01:26:09.706Z,86.96
2022-12-23T01:28:37.376Z,87.03
2022-12-23T01:31:04.985Z,86.68
2022-12-23T01:33:32.657Z,86.27
2022-12-23T01:36:00.932Z,86.42
2022-12-23T01:38:28.556Z,86.94
2022-12-23T01:40:56.158Z,86.58
2022-12-23T01:43:22.791Z,86.77
2022-12-23T01:45:50.935Z,86.92
2022-12-23T01:48:19.135Z,87.19
2022-12-23T01:50:46.802Z,86.98
2022-12-23T01:53:14.447Z,87.42
2022-12-23T01:55:42.034Z,87.31
2022-12-23T01:58:09.963Z,87.68
2022-12-23T02:00:55.115Z,87.09
2022-12-23T02:03:40.374Z,87.08
2022-12-23T02:06:25.674Z,87.45
2022-12-23T02:09:10.923Z,87.63
2022-12-23T02:11:39.619Z,87.27
2022-12-23T02:14:24.883Z,87.63
2022-12-23T02:16:52.559Z,87.76
2022-12-23T02:19:20.143Z,87.71
2022-12-23T02:21:48.631Z,87.93
2022-12-23T02:24:16.319Z,87.53
2022-12-23T02:26:44.362Z,87.56
2022-12-23T02:29:12.516Z,87.34
2022-12-23T02:31:40.094Z,87.76
2022-12-23T02:34:08.096Z,87.96
2022-12-23T02:36:35.841Z,87.69
2022-12-23T02:39:03.504Z,87.46
2022-12-23T02:41:31.121Z,87.78
2022-12-23T02:43:58.824Z,87.45
2022-12-23T02:46:27.046Z,87.74
2022-12-23T02:48:54.712Z,87.89
2022-12-23T02:51:22.357Z,87.58
2022-12-23T02:53:49.961Z,87.75
2022-12-23T02:56:17.573Z,87.57
2022-12-23T02:58:45.538Z,88.24
2022-12-23T03:01:13.280Z,88.05
2022-12-23T03:03:41.015Z,87.51
2022-12-23T03:06:08.730Z,87.96
2022-12-23T03:08:36.325Z,88.14
2022-12-23T03:11:05.871Z,88.01
2022-12-23T03:13:33.490Z,88.02
2022-12-23T03:16:01.114Z,88.27
2022-12-23T03:18:28.761Z,87.84
2022-12-23T03:20:56.425Z,88.05
2022-12-23T03:23:24.359Z,88.12
2022-12-23T03:25:51.976Z,88.04
2022-12-23T03:28:19.593Z,88.02
2022-12-23T03:30:47.222Z,87.89
2022-12-23T03:33:15.299Z,88.43
2022-12-23T03:35:43.132Z,87.57
2022-12-23T03:38:10.727Z,87.75
2022-12-23T03:40:38.350Z,87.72
2022-12-23T03:43:06.026Z,87.67
2022-12-23T03:45:41.491Z,87.75
2022-12-23T03:48:09.985Z,88.23
2022-12-23T03:50:52.947Z,88.04
2022-12-23T03:53:21.041Z,87.60
2022-12-23T03:55:48.637Z,87.60
2022-12-23T03:58:16.842Z,88.04
2022-12-23T04:00:44.508Z,88.15
2022-12-23T04:03:12.158Z,87.70
2022-12-23T04:05:39.755Z,87.97
2022-12-23T04:08:07.444Z,87.96
2022-12-23T04:10:35.649Z,87.93
2022-12-23T04:13:03.258Z,87.70
2022-12-23T04:15:31.429Z,87.77
2022-12-23T04:17:59.021Z,88.39
2022-12-23T04:20:26.611Z,88.04
2022-12-23T04:22:54.772Z,88.10
2022-12-23T04:25:22.332Z,87.97
2022-12-23T04:27:49.944Z,88.42
2022-12-23T04:30:18.728Z,88.41
2022-12-23T04:32:46.363Z,88.51
2022-12-23T04:35:14.873Z,88.03
2022-12-23T04:37:42.979Z,88.04
2022-12-23T04:40:10.579Z,88.31
2022-12-23T04:42:38.135Z,88.02
2022-12-23T04:45:05.751Z,88.54
2022-12-23T04:47:33.909Z,87.96
2022-12-23T04:50:01.540Z,87.91
2022-12-23T04:52:29.178Z,87.94
2022-12-23T04:54:56.845Z,88.02
2022-12-23T04:57:24.461Z,87.94
2022-12-23T04:59:54.068Z,87.94
2022-12-23T05:02:21.728Z,88.18
2022-12-23T05:04:49.409Z,88.51
2022-12-23T05:07:17.064Z,88.17
2022-12-23T05:09:44.652Z,88.40
2022-12-23T05:12:12.502Z,88.40
2022-12-23T05:14:40.103Z,88.60
2022-12-23T05:17:08.179Z,88.08
2022-12-23T05:19:35.924Z,87.95
2022-12-23T05:22:03.981Z,88.28
2022-12-23T05:24:31.883Z,88.20
2022-12-23T05:27:00.524Z,88.28
2022-12-23T05:29:28.483Z,88.21
2022-12-23T05:31:56.196Z,87.87
2022-12-23T05:34:23.863Z,88.25
2022-12-23T05:36:51.727Z,88.03
2022-12-23T05:39:19.361Z,88.04
2022-12-23T05:41:47.037Z,88.72
2022-12-23T05:44:15.030Z,88.62
2022-12-23T05:46:42.703Z,88.30
2022-12-23T05:49:11.122Z,88.07
2022-12-23T05:51:38.800Z,88.46
2022-12-23T05:54:06.449Z,88.20
2022-12-23T05:56:34.054Z,88.63
2022-12-23T05:59:01.726Z,88.37
2022-12-23T06:01:29.386Z,88.79
2022-12-23T06:03:57.176Z,88.54
2022-12-23T06:06:25.251Z,88.70
2022-12-23T06:08:59.139Z,88.60
2022-12-23T06:11:27.395Z,88.65
2022-12-23T06:13:55.143Z,88.32
2022-12-23T06:16:22.781Z,88.40
2022-12-23T06:18:50.481Z,88.90
2022-12-23T06:21:18.090Z,88.59
2022-12-23T06:23:45.749Z,88.45
2022-12-23T06:26:13.716Z,88.38
2022-12-23T06:28:41.678Z,88.33
2022-12-23T06:31:09.301Z,88.30
2022-12-23T06:33:36.984Z,88.57
2022-12-23T06:36:04.603Z,88.54
2022-12-23T06:38:32.463Z,88.30
2022-12-23T06:41:00.119Z,88.80
2022-12-23T06:43:27.738Z,88.43
2022-12-23T06:45:55.489Z,88.67
2022-12-23T06:48:23.231Z,88.91
2022-12-23T06:50:51.167Z,88.66
2022-12-23T06:53:19.778Z,89.01
2022-12-23T06:55:47.555Z,88.71
2022-12-23T06:58:15.192Z,88.43
2022-12-23T07:00:44.138Z,88.87
2022-12-23T07:03:12.060Z,88.64
2022-12-23T07:05:39.762Z,88.72
2022-12-23T07:08:07.433Z,88.98
2022-12-23T07:10:35.278Z,88.81
2022-12-23T07:13:03.292Z,89.18
2022-12-23T07:15:31.304Z,88.57
2022-12-23T07:17:59.106Z,88.88
2022-12-23T07:20:26.731Z,88.54
2022-12-23T07:22:54.369Z,88.99
2022-12-23T07:25:22.068Z,88.86
2022-12-23T07:27:50.458Z,88.58
2022-12-23T07:30:18.211Z,88.51
2022-12-23T07:32:45.903Z,88.95
2022-12-23T07:35:13.819Z,88.91
2022-12-23T07:37:41.548Z,88.46
2022-12-23T07:40:09.516Z,88.51
2022-12-23T07:42:46.629Z,88.78
2022-12-23T07:45:14.694Z,88.16
2022-12-23T07:47:42.364Z,88.95
2022-12-23T07:50:10.538Z,89.07
2022-12-23T07:52:38.258Z,88.92
2022-12-23T07:55:05.922Z,89.19
2022-12-23T07:57:38.267Z,89.00
2022-12-23T08:00:06.138Z,89.04
2022-12-23T08:02:34.529Z,89.29
2022-12-23T08:05:02.464Z,88.96
2022-12-23T08:07:30.219Z,88.83
2022-12-23T08:09:57.954Z,89.09
2022-12-23T08:12:25.697Z,88.95
2022-12-23T08:14:54.225Z,88.77
2022-12-23T08:17:22.279Z,89.38
2022-12-23T08:19:50.082Z,89.27
2022-12-23T08:22:18.137Z,88.95
2022-12-23T08:24:45.827Z,88.86
2022-12-23T08:27:13.832Z,88.95
2022-12-23T08:29:41.718Z,88.89
2022-12-23T08:32:09.441Z,89.08
2022-12-23T08:34:37.216Z,88.80
2022-12-23T08:37:05.033Z,88.88
2022-12-23T08:39:33.429Z,88.61
2022-12-23T08:42:01.663Z,88.45
2022-12-23T08:44:30.044Z,88.77
2022-12-23T08:46:57.696Z,88.33
2022-12-23T08:49:25.382Z,88.48
2022-12-23T08:51:53.707Z,88.83
2022-12-23T08:54:22.377Z,88.93
2022-12-23T08:56:50.034Z,88.30
2022-12-23T08:59:19.540Z,88.25
2022-12-23T09:01:48.078Z,88.25
2022-12-23T09:04:18.040Z,88.22
2022-12-23T09:06:45.859Z,88.31
2022-12-23T09:09:13.626Z,88.27
2022-12-23T09:11:42.027Z,88.10
2022-12-23T09:14:10.540Z,87.86
2022-12-23T09:16:38.299Z,88.12
2022-12-23T09:19:06.125Z,88.08
2022-12-23T09:21:33.963Z,88.04
2022-12-23T09:24:01.703Z,87.70
2022-12-23T09:26:29.974Z,87.55
2022-12-23T09:28:58.323Z,88.17
2022-12-23T09:31:29.268Z,88.07
2022-12-23T09:34:02.040Z,88.09
2022-12-23T09:36:30.172Z,88.25
2022-12-23T09:38:58.727Z,88.07
2022-12-23T09:41:26.659Z,87.74
2022-12-23T09:43:54.412Z,88.13
2022-12-23T09:46:22.298Z,87.51
2022-12-23T09:48:50.252Z,87.72
2022-12-23T09:51:18.588Z,88.19
2022-12-23T09:53:46.437Z,87.60
2022-12-23T09:56:14.337Z,87.48
2022-12-23T09:58:42.192Z,87.89
2022-12-23T10:01:09.916Z,87.83
2022-12-23T10:03:38.804Z,88.01
2022-12-23T10:06:06.770Z,88.09
2022-12-23T10:08:35.157Z,87.49
2022-12-23T10:11:03.111Z,87.49
2022-12-23T10:13:31.064Z,87.32
2022-12-23T10:15:59.963Z,87.71
2022-12-23T10:18:27.749Z,87.54
2022-12-23T10:20:55.619Z,87.61
2022-12-23T10:23:23.505Z,87.88
2022-12-23T10:25:52.160Z,87.39
2022-12-23T10:28:20.331Z,87.13
2022-12-23T10:31:11.241Z,87.17
2022-12-23T10:33:36.650Z,87.48
2022-12-23T10:36:04.547Z,87.05
2022-12-23T10:38:32.869Z,87.39
2022-12-23T10:41:05.350Z,87.32
2022-12-23T10:43:38.226Z,87.50
2022-12-23T10:46:06.100Z,87.62
2022-12-23T10:48:34.433Z,87.22
2022-12-23T10:51:02.161Z,87.41
2022-12-23T10:53:30.117Z,87.66
2022-12-23T10:55:57.966Z,87.93
2022-12-23T10:58:25.886Z,87.49
2022-12-23T11:00:53.882Z,87.66
2022-12-23T11:03:21.768Z,87.47
2022-12-23T11:05:49.658Z,87.53
2022-12-23T11:08:17.715Z,87.54
2022-12-23T11:10:45.460Z,87.34
2022-12-23T11:13:14.682Z,87.20
2022-12-23T11:15:42.643Z,86.99
2022-12-23T11:18:10.485Z,87.07
2022-12-23T11:20:38.199Z,86.86
2022-12-23T11:23:05.962Z,86.88
2022-12-23T11:25:34.494Z,86.75
2022-12-23T11:28:02.362Z,86.72
2022-12-23T11:30:30.191Z,86.96
2022-12-23T11:32:58.068Z,87.05
2022-12-23T11:35:26.432Z,86.82
2022-12-23T11:37:54.319Z,87.32
2022-12-23T11:40:22.059Z,86.98
2022-12-23T11:42:53.585Z,87.30
2022-12-23T11:45:23.326Z,87.15
2022-12-23T11:47:51.070Z,87.45
2022-12-23T11:50:19.704Z,87.15
2022-12-23T11:52:47.724Z,87.25
2022-12-23T11:55:16.000Z,87.01
2022-12-23T11:57:44.400Z,86.68
2022-12-23T12:00:12.518Z,86.48
2022-12-23T12:02:41.129Z,86.77
2022-12-23T12:05:09.321Z,86.92
2022-12-23T12:07:37.292Z,86.80
2022-12-23T12:10:05.105Z,87.21
2022-12-23T12:12:32.824Z,86.89
2022-12-23T12:15:01.691Z,86.97
2022-12-23T12:17:29.659Z,87.16
2022-12-23T12:19:57.595Z,87.06
2022-12-23T12:22:25.508Z,87.05
2022-12-23T12:24:53.330Z,86.96
2022-12-23T12:27:21.829Z,87.07
2022-12-23T12:29:49.734Z,86.78
2022-12-23T12:32:17.530Z,87.24
2022-12-23T12:34:45.434Z,87.42
2022-12-23T12:37:13.511Z,87.42
2022-12-23T12:39:41.607Z,87.04
2022-12-23T12:42:09.998Z,86.87
2022-12-23T12:44:37.977Z,86.79
2022-12-23T12:47:21.830Z,86.98
2022-12-23T12:49:54.171Z,87.60
2022-12-23T12:52:22.411Z,87.25
2022-12-23T12:54:51.248Z,87.65
2022-12-23T12:57:20.371Z,87.74
2022-12-23T12:59:48.143Z,87.58
2022-12-23T13:02:17.659Z,87.74
2022-12-23T13:04:45.841Z,87.15
2022-12-23T13:07:13.663Z,87.68
2022-12-23T13:09:41.662Z,87.16
2022-12-23T13:12:09.598Z,87.74
2022-12-23T13:14:38.539Z,87.72
2022-12-23T13:17:06.550Z,87.53
2022-12-23T13:19:34.617Z,87.24
2022-12-23T13:22:02.471Z,87.52
2022-12-23T13:24:30.828Z,87.34
2022-12-23T13:26:59.075Z,87.10
2022-12-23T13:29:26.910Z,87.02
2022-12-23T13:31:54.870Z,87.49
2022-12-23T13:34:22.824Z,87.41
2022-12-23T13:36:50.916Z,87.37
2022-12-23T13:39:19.125Z,87.60
2022-12-23T13:41:47.120Z,87.44
2022-12-23T13:44:15.431Z,87.39
2022-12-23T13:46:43.505Z,87.77
2022-12-23T13:49:11.621Z,87.77
2022-12-23T13:51:40.533Z,87.40
2022-12-23T13:54:08.478Z,87.85
2022-12-23T13:56:36.514Z,88.09
2022-12-23T13:59:04.760Z,88.17
2022-12-23T14:01:32.858Z,87.69
2022-12-23T14:04:01.581Z,88.38
2022-12-23T14:06:29.817Z,87.69
2022-12-23T14:08:57.705Z,88.23
2022-12-23T14:11:25.726Z,88.02
2022-12-23T14:13:55.405Z,87.41
2022-12-23T14:16:24.246Z,87.61
2022-12-23T14:18:52.350Z,87.65
2022-12-23T14:21:20.188Z,87.49
2022-12-23T14:23:50.362Z,87.63
2022-12-23T14:26:18.460Z,87.49
2022-12-23T14:28:47.955Z,87.44
2022-12-23T14:31:15.830Z,87.76
2022-12-23T14:33:43.930Z,87.98
2022-12-23T14:36:11.800Z,87.72
2022-12-23T14:38:39.755Z,87.72
2022-12-23T14:41:08.631Z,88.07
2022-12-23T14:43:36.517Z,87.67
2022-12-23T14:46:05.149Z,87.96
2022-12-23T14:48:33.298Z,88.11
2022-12-23T14:51:01.293Z,87.94
2022-12-23T14:53:29.192Z,88.17
2022-12-23T14:55:57.269Z,88.38
2022-12-23T14:58:25.028Z,87.83
2022-12-23T15:00:53.006Z,88.17
2022-12-23T15:03:21.185Z,88.25
2022-12-23T15:05:51.644Z,88.42
2022-12-23T15:08:19.566Z,88.57
2022-12-23T15:10:47.783Z,87.92
2022-12-23T15:13:16.563Z,88.11
2022-12-23T15:15:44.461Z,87.93
2022-12-23T15:18:13.064Z,87.94
2022-12-23T15:20:41.108Z,87.99
2022-12-23T15:23:09.794Z,88.57
2022-12-23T15:25:37.997Z,88.07
2022-12-23T15:28:05.975Z,87.85
2022-12-23T15:30:34.655Z,88.19
2022-12-23T15:33:02.873Z,88.29
2022-12-23T15:35:31.167Z,88.55
2022-12-23T15:37:59.129Z,88.11
2022-12-23T15:40:27.375Z,87.83
2022-12-23T15:42:55.731Z,87.71
2022-12-23T15:45:23.717Z,88.20
2022-12-23T15:47:51.871Z,87.95
2022-12-23T15:50:20.410Z,88.08
2022-12-23T15:52:48.232Z,87.94
2022-12-23T15:55:16.870Z,88.08
2022-12-23T15:57:50.002Z,88.11
2022-12-23T16:00:18.655Z,87.89
2022-12-23T16:03:03.942Z,88.28
2022-12-23T16:05:34.094Z,87.99
2022-12-23T16:08:02.046Z,87.88
2022-12-23T16:10:29.994Z,88.29
2022-12-23T16:12:58.083Z,87.62
2022-12-23T16:15:26.053Z,88.18
2022-12-23T16:17:53.991Z,87.57
2022-12-23T16:20:22.039Z,87.37
2022-12-23T16:22:51.414Z,87.48
2022-12-23T16:25:20.480Z,86.62
2022-12-23T16:27:48.479Z,86.39
2022-12-23T16:30:16.813Z,86.95
2022-12-23T16:32:44.880Z,86.80
2022-12-23T16:35:13.010Z,86.55
2022-12-23T16:37:43.409Z,86.18
2022-12-23T16:40:14.734Z,86.26
2022-12-23T16:42:43.433Z,85.73
2022-12-23T16:45:11.301Z,86.36
2022-12-23T16:47:39.398Z,86.14
2022-12-23T16:50:07.190Z,86.76
2022-12-23T16:52:35.084Z,86.79
2022-12-23T16:55:03.105Z,86.71
2022-12-23T16:57:30.974Z,86.16
2022-12-23T16:59:58.907Z,86.30
2022-12-23T17:02:29.053Z,86.79
2022-12-23T17:04:57.037Z,86.63
2022-12-23T17:07:27.003Z,86.74
2022-12-23T17:09:55.041Z,86.19
2022-12-23T17:12:23.012Z,87.03
2022-12-23T17:14:51.155Z,86.76
2022-12-23T17:17:19.066Z,86.42
2022-12-23T17:19:47.725Z,86.58
2022-12-23T17:22:16.419Z,86.62
2022-12-23T17:24:44.897Z,87.02
2022-12-23T17:27:12.871Z,86.55
2022-12-23T17:29:40.916Z,86.74
2022-12-23T17:32:09.506Z,86.79
2022-12-23T17:34:37.566Z,87.06
2022-12-23T17:37:05.621Z,87.25
2022-12-23T17:39:33.688Z,87.11
2022-12-23T17:42:01.497Z,87.43
2022-12-23T17:44:30.143Z,87.21
2022-12-23T17:46:58.135Z,86.91
2022-12-23T17:49:26.071Z,87.75
2022-12-23T17:51:53.895Z,87.54
2022-12-23T17:54:21.914Z,87.34
2022-12-23T17:56:50.884Z,87.32
2022-12-23T17:59:18.716Z,87.31
2022-12-23T18:01:47.143Z,87.39
2022-12-23T18:04:15.172Z,87.03
2022-12-23T18:06:43.339Z,86.98
2022-12-23T18:09:11.995Z,86.80
2022-12-23T18:11:39.852Z,87.05
2022-12-23T18:14:07.833Z,86.40
2022-12-23T18:16:35.890Z,86.44
2022-12-23T18:19:03.763Z,86.37
2022-12-23T18:21:32.169Z,86.08
2022-12-23T18:24:00.158Z,86.06
2022-12-23T18:26:28.116Z,86.28
2022-12-23T18:28:56.578Z,85.98
2022-12-23T18:31:24.706Z,86.21
2022-12-23T18:33:53.280Z,86.38
2022-12-23T18:36:21.235Z,86.21
2022-12-23T18:38:49.324Z,86.56
2022-12-23T18:41:17.216Z,86.35
2022-12-23T18:43:45.143Z,86.98
2022-12-23T18:46:13.911Z,86.96
2022-12-23T18:48:41.900Z,87.44
2022-12-23T18:51:10.706Z,87.60
2022-12-23T18:53:38.897Z,87.74
2022-12-23T18:56:06.727Z,87.40
2022-12-23T18:58:35.377Z,87.57
2022-12-23T19:01:03.428Z,87.72
2022-12-23T19:03:31.278Z,88.43
2022-12-23T19:06:02.006Z,88.30
2022-12-23T19:08:30.083Z,88.21
2022-12-23T19:10:58.537Z,88.47
2022-12-23T19:13:26.919Z,88.38
2022-12-23T19:15:55.096Z,88.28
2022-12-23T19:18:23.046Z,88.08
2022-12-23T19:20:51.037Z,88.70
2022-12-23T19:23:19.416Z,88.13
2022-12-23T19:25:54.415Z,88.13
2022-12-23T19:28:23.343Z,87.59
2022-12-23T19:30:51.344Z,87.76
2022-12-23T19:33:20.066Z,87.76
2022-12-23T19:35:48.129Z,87.65
2022-12-23T19:38:15.939Z,87.07
2022-12-23T19:40:43.918Z,87.28
2022-12-23T19:43:11.894Z,87.03
2022-12-23T19:45:40.455Z,87.03
2022-12-23T19:48:08.352Z,87.26
2022-12-23T19:50:36.462Z,86.92
2022-12-23T19:53:04.275Z,86.71
2022-12-23T19:55:32.514Z,86.81
2022-12-23T19:58:00.883Z,87.02
2022-12-23T20:00:28.822Z,86.84
2022-12-23T20:02:58.917Z,87.01
2022-12-23T20:05:27.499Z,86.92
2022-12-23T20:07:55.277Z,87.53
2022-12-23T20:10:23.883Z,87.36
2022-12-23T20:12:51.992Z,87.00
2022-12-23T20:15:19.885Z,87.30
2022-12-23T20:17:47.726Z,87.62
2022-12-23T20:20:15.597Z,87.03
2022-12-23T20:22:44.150Z,87.58
2022-12-23T20:25:12.209Z,87.40
2022-12-23T20:27:40.568Z,87.50
2022-12-23T20:30:08.518Z,87.90
2022-12-23T20:32:36.397Z,87.20
2022-12-23T20:35:04.823Z,86.86
2022-12-23T20:37:33.419Z,87.16
2022-12-23T20:40:01.235Z,86.82
2022-12-23T20:42:29.428Z,86.91
2022-12-23T20:44:57.314Z,86.86
2022-12-23T20:47:25.816Z,86.75
2022-12-23T20:49:53.809Z,87.12
2022-12-23T20:52:21.735Z,86.41
2022-12-23T20:54:49.663Z,86.88
2022-12-23T20:57:17.740Z,87.17
2022-12-23T20:59:47.900Z,87.46
2022-12-23T21:02:15.951Z,87.10
2022-12-23T21:04:43.856Z,87.74
2022-12-23T21:07:11.723Z,87.92
2022-12-23T21:09:39.613Z,88.16
2022-12-23T21:12:08.051Z,88.10
2022-12-23T21:14:35.915Z,88.12
2022-12-23T21:17:03.871Z,87.81
2022-12-23T21:19:31.793Z,88.03
2022-12-23T21:21:59.898Z,87.77
2022-12-23T21:24:28.375Z,88.22
2022-12-23T21:26:57.371Z,87.69
2022-12-23T21:29:25.391Z,87.81
2022-12-23T21:31:53.430Z,87.67
2022-12-23T21:34:21.480Z,86.72
2022-12-23T21:36:49.841Z,87.03
2022-12-23T21:39:17.917Z,87.15
2022-12-23T21:41:46.266Z,87.48
2022-12-23T21:44:15.257Z,87.50
2022-12-23T21:46:43.227Z,87.71
2022-12-23T21:49:11.827Z,87.47
2022-12-23T21:51:41.298Z,88.05
2022-12-23T21:54:09.881Z,87.61
2022-12-23T21:56:37.989Z,88.38
2022-12-23T21:59:05.842Z,88.22
2022-12-23T22:01:33.999Z,87.99
2022-12-23T22:04:02.083Z,88.37
2022-12-23T22:06:30.522Z,88.66
2022-12-23T22:08:58.391Z,88.23
2022-12-23T22:11:26.418Z,88.42
2022-12-23T22:13:54.692Z,88.22
2022-12-23T22:16:22.641Z,88.03
2022-12-23T22:18:50.672Z,88.25
2022-12-23T22:21:18.510Z,88.10
2022-12-23T22:23:46.816Z,88.53
2022-12-23T22:26:18.845Z,88.46
2022-12-23T22:28:51.848Z,88.44
2022-12-23T22:31:19.860Z,88.66
2022-12-23T22:33:47.629Z,88.92
2022-12-23T22:36:16.127Z,88.46
2022-12-23T22:38:44.003Z,88.88
2022-12-23T22:41:12.064Z,88.96
2022-12-23T22:43:39.973Z,89.12
2022-12-23T22:46:07.978Z,88.76
2022-12-23T22:48:35.942Z,89.03
2022-12-23T22:51:03.893Z,88.65
2022-12-23T22:53:31.869Z,88.82
2022-12-23T22:55:59.735Z,89.13
2022-12-23T22:58:27.444Z,88.71
2022-12-23T23:00:55.783Z,88.46
2022-12-23T23:03:23.550Z,88.97
2022-12-23T23:05:51.355Z,88.14
2022-12-23T23:08:19.301Z,88.33
2022-12-23T23:10:47.368Z,88.28
2022-12-23T23:13:16.092Z,88.22
2022-12-23T23:15:43.973Z,88.38
2022-12-23T23:18:11.691Z,88.24
2022-12-23T23:20:39.513Z,88.11
2022-12-23T23:23:07.375Z,87.66
2022-12-23T23:25:35.758Z,88.11
2022-12-23T23:28:03.594Z,87.32
2022-12-23T23:30:31.457Z,87.66
2022-12-23T23:32:59.561Z,87.43
2022-12-23T23:35:27.288Z,87.15
2022-12-23T23:37:55.865Z,86.69
2022-12-23T23:40:23.581Z,87.07
2022-12-23T23:42:51.443Z,86.62
2022-12-23T23:45:19.209Z,86.71
2022-12-23T23:47:46.954Z,86.99
2022-12-23T23:50:14.684Z,86.64
2022-12-23T23:52:42.489Z,86.90
2022-12-23T23:55:10.580Z,86.49
2022-12-23T23:57:38.258Z,86.38
